createdAt,value
2023-01-12T00:00:00.508Z,92.63
2023-01-12T00:02:29.851Z,92.94
2023-01-12T00:04:59.213Z,93.01
2023-01-12T00:07:29.256Z,93.44
2023-01-12T00:09:58.480Z,93.84
2023-01-12T00:12:28.025Z,93.83
2023-01-12T00:14:57.480Z,94.53
2023-01-12T00:17:27.002Z,94.28
2023-01-12T00:19:56.425Z,94.73
2023-01-12T00:22:25.621Z,94.44
2023-01-12T00:24:55.969Z,94.30
2023-01-12T00:27:25.147Z,94.68
2023-01-12T00:29:54.668Z,95.22
2023-01-12T00:32:23.990Z,94.87
2023-01-12T00:34:53.246Z,95.07
2023-01-12T00:37:24.222Z,95.24
2023-01-12T00:40:01.857Z,95.55
2023-01-12T00:42:42.742Z,95.40
2023-01-12T00:45:25.032Z,95.55
2023-01-12T00:47:54.699Z,95.67
2023-01-12T00:50:24.447Z,96.14
2023-01-12T00:52:53.927Z,95.69
2023-01-12T00:55:23.420Z,95.86
2023-01-12T00:57:53.493Z,96.35
2023-01-12T01:00:22.811Z,96.37
2023-01-12T01:02:52.105Z,96.44
2023-01-12T01:05:21.427Z,96.71
2023-01-12T01:07:50.979Z,96.73
2023-01-12T01:10:20.591Z,96.62
2023-01-12T01:12:50.322Z,96.96
2023-01-12T01:15:19.629Z,97.48
2023-01-12T01:17:49.101Z,97.20
2023-01-12T01:20:19.317Z,97.28
2023-01-12T01:22:48.779Z,97.25
2023-01-12T01:25:18.383Z,97.35
2023-01-12T01:27:47.736Z,97.76
2023-01-12T01:30:17.770Z,98.04
2023-01-12T01:32:47.253Z,97.91
2023-01-12T01:35:16.895Z,98.14
2023-01-12T01:37:46.129Z,98.21
2023-01-12T01:40:15.444Z,98.02
2023-01-12T01:42:44.707Z,98.06
2023-01-12T01:45:16.810Z,97.91
2023-01-12T01:47:48.922Z,96.44
2023-01-12T01:50:29.929Z,97.42
2023-01-12T01:53:02.198Z,98.22
2023-01-12T01:55:36.942Z,99.14
2023-01-12T01:58:14.809Z,99.17
2023-01-12T02:00:45.573Z,99.34
2023-01-12T02:03:15.503Z,98.77
2023-01-12T02:05:47.051Z,99.08
2023-01-12T02:08:19.414Z,98.99
2023-01-12T02:10:48.915Z,98.67
2023-01-12T02:13:37.346Z,98.77
2023-01-12T02:16:21.848Z,98.58
2023-01-12T02:19:11.090Z,98.56
2023-01-12T02:21:52.516Z,98.70
2023-01-12T02:24:39.821Z,98.62
2023-01-12T02:27:39.609Z,98.71
2023-01-12T02:30:30.141Z,97.97
2023-01-12T02:33:08.360Z,98.34
2023-01-12T02:36:03.250Z,98.46
2023-01-12T02:38:50.609Z,98.52
2023-01-12T02:41:55.986Z,98.25
2023-01-12T02:44:37.287Z,98.24
2023-01-12T02:47:09.699Z,98.18
2023-01-12T02:49:42.576Z,98.24
2023-01-12T02:52:14.389Z,98.61
2023-01-12T02:54:46.281Z,98.55
2023-01-12T02:57:16.153Z,98.38
2023-01-12T02:59:46.636Z,98.57
2023-01-12T03:02:21.349Z,98.51
2023-01-12T03:04:51.046Z,98.45
2023-01-12T03:07:35.271Z,98.63
2023-01-12T03:10:22.761Z,98.48
2023-01-12T03:12:52.251Z,98.66
2023-01-12T03:15:23.103Z,98.66
2023-01-12T03:17:55.510Z,98.72
2023-01-12T03:20:32.963Z,98.37
2023-01-12T03:23:11.422Z,98.17
2023-01-12T03:25:43.171Z,97.60
2023-01-12T03:28:14.243Z,97.29
2023-01-12T03:30:46.484Z,96.77
2023-01-12T03:33:15.775Z,97.48
2023-01-12T03:35:54.073Z,97.18
2023-01-12T03:38:29.386Z,97.44
2023-01-12T03:41:01.339Z,97.21
2023-01-12T03:43:33.480Z,96.87
2023-01-12T03:46:06.069Z,96.91
2023-01-12T03:48:38.160Z,97.45
2023-01-12T03:51:13.137Z,97.10
2023-01-12T03:53:44.014Z,97.04
2023-01-12T03:56:14.709Z,96.87
2023-01-12T03:58:44.757Z,97.65
2023-01-12T04:01:14.796Z,97.81
2023-01-12T04:03:44.295Z,97.62
2023-01-12T04:06:13.954Z,97.61
2023-01-12T04:08:43.307Z,97.24
2023-01-12T04:11:31.039Z,97.29
2023-01-12T04:14:00.249Z,97.39
2023-01-12T04:16:29.749Z,97.22
2023-01-12T04:18:59.329Z,97.64
2023-01-12T04:21:46.422Z,97.30
2023-01-12T04:24:15.776Z,97.20
2023-01-12T04:26:45.791Z,97.58
2023-01-12T04:29:15.414Z,97.77
2023-01-12T04:31:44.694Z,97.25
2023-01-12T04:34:14.238Z,97.47
2023-01-12T04:36:44.201Z,97.08
2023-01-12T04:39:13.599Z,97.31
2023-01-12T04:41:43.064Z,97.63
2023-01-12T04:44:12.721Z,97.40
2023-01-12T04:46:41.927Z,97.69
2023-01-12T04:49:11.392Z,97.81
2023-01-12T04:51:40.581Z,97.80
2023-01-12T04:54:11.256Z,97.94
2023-01-12T04:56:40.646Z,98.46
2023-01-12T04:59:10.835Z,98.39
2023-01-12T05:01:40.537Z,98.23
2023-01-12T05:04:10.207Z,98.48
2023-01-12T05:06:40.007Z,98.56
2023-01-12T05:09:28.201Z,98.85
2023-01-12T05:11:57.631Z,98.60
2023-01-12T05:14:26.854Z,98.63
2023-01-12T05:16:56.652Z,98.47
2023-01-12T05:19:25.939Z,98.50
2023-01-12T05:21:55.116Z,98.89
2023-01-12T05:24:24.352Z,98.67
2023-01-12T05:26:53.727Z,98.97
2023-01-12T05:29:23.084Z,98.78
2023-01-12T05:31:52.449Z,98.79
2023-01-12T05:34:21.861Z,98.39
2023-01-12T05:36:51.336Z,99.06
2023-01-12T05:39:21.846Z,99.21
2023-01-12T05:42:09.091Z,99.22
2023-01-12T05:44:38.328Z,99.08
2023-01-12T05:47:07.514Z,99.21
2023-01-12T05:49:36.871Z,99.53
2023-01-12T05:52:06.127Z,99.68
2023-01-12T05:54:35.748Z,99.44
2023-01-12T05:57:05.001Z,99.71
2023-01-12T05:59:34.241Z,99.53
2023-01-12T06:02:03.510Z,99.79
2023-01-12T06:04:32.822Z,99.59
2023-01-12T06:07:02.357Z,99.51
2023-01-12T06:09:31.664Z,99.31
2023-01-12T06:12:19.114Z,98.81
2023-01-12T06:14:48.379Z,99.36
2023-01-12T06:17:17.645Z,99.32
2023-01-12T06:19:47.076Z,99.01
2023-01-12T06:22:16.283Z,98.61
2023-01-12T06:24:47.328Z,98.71
2023-01-12T06:27:17.453Z,98.91
2023-01-12T06:29:46.849Z,98.83
2023-01-12T06:32:16.155Z,98.40
2023-01-12T06:34:45.710Z,98.64
2023-01-12T06:37:15.371Z,99.02
2023-01-12T06:39:44.619Z,98.32
2023-01-12T06:42:28.989Z,98.37
2023-01-12T06:44:59.027Z,98.42
2023-01-12T06:47:30.350Z,98.72
2023-01-12T06:49:59.690Z,98.38
2023-01-12T06:52:30.364Z,98.59
2023-01-12T06:54:59.897Z,98.34
2023-01-12T06:57:29.399Z,98.25
2023-01-12T06:59:58.881Z,98.15
2023-01-12T07:02:28.214Z,98.30
2023-01-12T07:04:57.429Z,98.56
2023-01-12T07:07:26.729Z,98.59
2023-01-12T07:09:56.570Z,98.31
2023-01-12T07:12:25.797Z,98.28
2023-01-12T07:14:56.296Z,98.43
2023-01-12T07:17:25.676Z,98.58
2023-01-12T07:19:55.281Z,98.53
2023-01-12T07:22:26.542Z,98.78
2023-01-12T07:24:57.776Z,98.43
2023-01-12T07:27:27.206Z,98.25
2023-01-12T07:29:56.980Z,98.17
2023-01-12T07:32:29.617Z,98.18
2023-01-12T07:34:59.387Z,98.03
2023-01-12T07:37:28.616Z,98.01
2023-01-12T07:39:59.161Z,97.91
2023-01-12T07:42:28.592Z,97.54
2023-01-12T07:44:59.031Z,98.17
2023-01-12T07:47:28.238Z,98.18
2023-01-12T07:49:57.584Z,97.68
2023-01-12T07:52:26.795Z,97.40
2023-01-12T07:54:56.779Z,97.54
2023-01-12T07:57:26.089Z,97.80
2023-01-12T07:59:55.294Z,97.49
2023-01-12T08:02:24.588Z,98.04
2023-01-12T08:04:54.772Z,98.38
2023-01-12T08:07:24.292Z,98.26
2023-01-12T08:09:53.493Z,97.65
2023-01-12T08:12:22.718Z,97.54
2023-01-12T08:14:51.913Z,97.91
2023-01-12T08:17:22.678Z,97.67
2023-01-12T08:20:01.074Z,98.09
2023-01-12T08:22:34.083Z,98.15
2023-01-12T08:25:06.374Z,97.73
2023-01-12T08:27:37.970Z,97.57
2023-01-12T08:30:08.634Z,97.41
2023-01-12T08:32:38.056Z,97.37
2023-01-12T08:35:08.109Z,97.42
2023-01-12T08:37:37.804Z,97.43
2023-01-12T08:40:08.264Z,97.64
2023-01-12T08:42:37.780Z,97.79
2023-01-12T08:45:08.139Z,97.61
2023-01-12T08:47:37.843Z,97.54
2023-01-12T08:50:08.964Z,97.41
2023-01-12T08:52:38.281Z,97.44
2023-01-12T08:55:10.113Z,97.70
2023-01-12T08:57:39.811Z,98.01
2023-01-12T09:00:10.460Z,97.74
2023-01-12T09:02:39.822Z,97.93
2023-01-12T09:05:10.077Z,98.10
2023-01-12T09:07:39.851Z,98.67
2023-01-12T09:10:09.905Z,98.88
2023-01-12T09:12:39.117Z,99.42
2023-01-12T09:15:09.233Z,99.39
2023-01-12T09:17:38.847Z,99.43
2023-01-12T09:20:08.669Z,99.63
2023-01-12T09:22:38.101Z,99.63
2023-01-12T09:25:07.610Z,99.75
2023-01-12T09:27:36.848Z,99.78
2023-01-12T09:30:07.791Z,99.72
2023-01-12T09:32:37.285Z,99.74
2023-01-12T09:35:07.133Z,99.23
2023-01-12T09:37:38.063Z,99.37
2023-01-12T09:40:08.629Z,99.35
2023-01-12T09:42:56.511Z,99.53
2023-01-12T09:45:44.661Z,99.69
2023-01-12T09:48:15.230Z,99.80
2023-01-12T09:50:47.870Z,99.72
2023-01-12T09:53:26.799Z,99.51
2023-01-12T09:56:03.139Z,99.44
2023-01-12T09:59:06.353Z,99.47
2023-01-12T10:01:35.640Z,99.77
2023-01-12T10:04:05.021Z,99.79
2023-01-12T10:06:35.619Z,99.83
2023-01-12T10:09:09.179Z,99.73
2023-01-12T10:11:56.226Z,99.79
2023-01-12T10:14:46.063Z,99.83
2023-01-12T10:17:23.404Z,99.83
2023-01-12T10:20:11.388Z,99.96
2023-01-12T10:22:55.593Z,99.79
2023-01-12T10:25:48.927Z,99.61
2023-01-12T10:28:33.600Z,99.55
2023-01-12T10:31:03.167Z,99.68
2023-01-12T10:33:34.552Z,99.84
2023-01-12T10:36:20.709Z,99.94
2023-01-12T10:39:02.497Z,99.72
2023-01-12T10:41:34.412Z,99.60
2023-01-12T10:44:17.328Z,99.58
2023-01-12T10:46:49.830Z,99.66
2023-01-12T10:49:24.328Z,99.79
2023-01-12T10:51:58.805Z,99.99
2023-01-12T10:54:33.593Z,100.00
2023-01-12T10:57:06.418Z,99.84
2023-01-12T10:59:38.578Z,99.68
2023-01-12T11:02:14.519Z,99.38
2023-01-12T11:04:48.829Z,99.55
2023-01-12T11:07:22.961Z,99.28
2023-01-12T11:09:52.411Z,99.30
2023-01-12T11:12:33.856Z,99.12
2023-01-12T11:15:12.387Z,99.28
2023-01-12T11:18:12.351Z,99.41
2023-01-12T11:20:50.852Z,99.49
2023-01-12T11:23:38.522Z,99.80
2023-01-12T11:26:16.077Z,99.92
2023-01-12T11:28:48.489Z,99.95
2023-01-12T11:31:26.756Z,100.00
2023-01-12T11:34:02.157Z,100.00
2023-01-12T11:36:42.500Z,99.89
2023-01-12T11:39:14.298Z,100.00
2023-01-12T11:42:13.625Z,99.98
2023-01-12T11:45:04.016Z,100.00
2023-01-12T11:47:41.549Z,99.98
2023-01-12T11:50:30.570Z,100.00
2023-01-12T11:56:11.098Z,100.00
2023-01-12T11:59:01.033Z,100.00
2023-01-12T12:01:46.137Z,100.00
2023-01-12T12:04:30.238Z,100.00
2023-01-12T12:07:05.410Z,100.00
2023-01-12T12:10:00.962Z,100.00
2023-01-12T12:12:48.735Z,100.00
2023-01-12T12:15:30.205Z,100.00
2023-01-12T12:18:03.211Z,99.97
2023-01-12T12:20:38.393Z,99.49
2023-01-12T12:23:23.157Z,100.00
2023-01-12T12:25:55.536Z,99.60
2023-01-12T12:28:47.360Z,99.19
2023-01-12T12:31:42.734Z,98.58
2023-01-12T12:34:33.205Z,98.50
2023-01-12T12:37:14.547Z,98.67
2023-01-12T12:40:02.487Z,98.89
2023-01-12T12:43:04.351Z,98.95
2023-01-12T12:45:51.636Z,98.15
2023-01-12T12:48:32.963Z,98.53
2023-01-12T12:51:08.055Z,98.38
2023-01-12T12:53:41.927Z,98.24
2023-01-12T12:56:14.305Z,98.85
2023-01-12T12:58:46.162Z,98.66
2023-01-12T13:01:24.826Z,98.66
2023-01-12T13:03:56.336Z,98.57
2023-01-12T13:06:39.758Z,98.67
2023-01-12T13:09:15.178Z,98.51
2023-01-12T13:11:54.598Z,98.66
2023-01-12T13:14:41.510Z,98.64
2023-01-12T13:17:25.960Z,98.51
2023-01-12T13:20:16.621Z,98.61
2023-01-12T13:22:44.925Z,98.46
2023-01-12T13:25:23.918Z,98.65
2023-01-12T13:28:02.016Z,98.62
2023-01-12T13:30:35.260Z,98.62
2023-01-12T13:33:25.005Z,98.36
2023-01-12T13:36:03.169Z,98.99
2023-01-12T13:38:42.871Z,98.90
2023-01-12T13:41:19.619Z,98.89
2023-01-12T13:43:55.020Z,99.47
2023-01-12T13:46:30.139Z,99.21
2023-01-12T13:49:00.394Z,98.74
2023-01-12T13:51:40.677Z,99.44
2023-01-12T13:54:14.862Z,99.15
2023-01-12T13:56:44.432Z,99.16
2023-01-12T13:59:18.901Z,99.02
2023-01-12T14:01:49.854Z,98.56
2023-01-12T14:04:22.778Z,98.80
2023-01-12T14:07:23.073Z,98.98
2023-01-12T14:10:19.279Z,98.95
2023-01-12T14:13:21.363Z,99.20
2023-01-12T14:16:08.658Z,99.47
2023-01-12T14:18:45.956Z,99.62
2023-01-12T14:21:24.604Z,99.75
2023-01-12T14:23:54.916Z,100.00
2023-01-12T14:26:27.249Z,100.00
2023-01-12T14:28:56.696Z,100.00
2023-01-12T14:31:40.154Z,99.83
2023-01-12T14:34:24.565Z,100.00
2023-01-12T14:36:53.896Z,100.00
2023-01-12T14:39:25.818Z,100.00
2023-01-12T14:42:14.666Z,100.00
2023-01-12T14:45:15.268Z,100.00
2023-01-12T14:47:44.490Z,100.00
2023-01-12T14:50:16.620Z,100.00
2023-01-12T14:52:47.010Z,100.00
2023-01-12T14:55:22.017Z,100.00
2023-01-12T14:57:54.991Z,100.00
2023-01-12T15:00:26.828Z,100.00
2023-01-12T15:02:58.048Z,100.00
2023-01-12T15:05:29.122Z,100.00
2023-01-12T15:08:07.852Z,100.00
2023-01-12T15:10:39.860Z,100.00
2023-01-12T15:13:30.489Z,100.00
2023-01-12T15:16:18.835Z,100.00
2023-01-12T15:19:05.968Z,100.00
2023-01-12T15:21:54.086Z,100.00
2023-01-12T15:24:43.891Z,100.00
2023-01-12T15:27:15.138Z,100.00
2023-01-12T15:29:44.598Z,100.00
2023-01-12T15:32:46.990Z,100.00
2023-01-12T15:35:09.396Z,100.00
2023-01-12T15:37:38.602Z,100.00
2023-01-12T15:40:09.479Z,100.00
2023-01-12T15:42:38.987Z,100.00
2023-01-12T15:45:17.040Z,100.00
2023-01-12T15:47:47.922Z,100.00
2023-01-12T15:50:17.468Z,100.00
2023-01-12T15:52:48.606Z,100.00
2023-01-12T15:55:20.232Z,100.00
2023-01-12T15:57:51.429Z,100.00
2023-01-12T16:00:22.483Z,100.00
2023-01-12T16:02:53.170Z,100.00
2023-01-12T16:05:24.102Z,100.00
2023-01-12T16:07:53.495Z,100.00
2023-01-12T16:10:23.452Z,100.00
2023-01-12T16:12:52.671Z,100.00
2023-01-12T16:15:24.535Z,99.40
2023-01-12T16:17:53.816Z,99.98
2023-01-12T16:20:23.300Z,100.00
2023-01-12T16:22:52.720Z,99.79
2023-01-12T16:25:22.501Z,99.37
2023-01-12T16:27:52.181Z,99.52
2023-01-12T16:30:21.903Z,99.44
2023-01-12T16:32:51.555Z,99.57
2023-01-12T16:35:21.352Z,99.58
2023-01-12T16:37:54.772Z,99.52
2023-01-12T16:40:24.467Z,99.58
2023-01-12T16:42:54.057Z,99.70
2023-01-12T16:45:23.535Z,99.47
2023-01-12T16:47:54.386Z,99.93
2023-01-12T16:50:23.963Z,100.00
2023-01-12T16:52:53.727Z,99.95
2023-01-12T16:55:23.280Z,99.97
2023-01-12T16:57:52.903Z,99.90
2023-01-12T17:00:22.781Z,100.00
2023-01-12T17:02:52.507Z,99.88
2023-01-12T17:05:22.437Z,99.88
2023-01-12T17:07:54.280Z,99.85
2023-01-12T17:10:23.804Z,99.80
2023-01-12T17:12:59.029Z,99.49
2023-01-12T17:15:25.310Z,99.87
2023-01-12T17:17:55.557Z,99.75
2023-01-12T17:20:25.376Z,100.00
2023-01-12T17:22:54.868Z,99.72
2023-01-12T17:25:24.319Z,99.62
2023-01-12T17:27:54.253Z,99.77
2023-01-12T17:30:23.477Z,99.08
2023-01-12T17:32:53.151Z,99.63
2023-01-12T17:35:22.699Z,99.62
2023-01-12T17:37:52.006Z,99.24
2023-01-12T17:40:22.177Z,99.76
2023-01-12T17:43:03.201Z,99.37
2023-01-12T17:45:33.718Z,98.82
2023-01-12T17:48:02.972Z,98.85
2023-01-12T17:50:32.607Z,98.83
2023-01-12T17:53:01.942Z,99.16
2023-01-12T17:55:31.702Z,98.90
2023-01-12T17:58:00.947Z,98.53
2023-01-12T18:00:30.627Z,98.52
2023-01-12T18:03:00.472Z,98.03
2023-01-12T18:05:31.580Z,98.12
2023-01-12T18:08:01.263Z,97.20
2023-01-12T18:10:30.500Z,97.33
2023-01-12T18:12:59.777Z,97.60
2023-01-12T18:15:29.690Z,97.27
2023-01-12T18:17:58.953Z,97.05
2023-01-12T18:20:28.215Z,97.58
2023-01-12T18:22:57.544Z,97.20
2023-01-12T18:25:27.204Z,98.10
2023-01-12T18:27:56.513Z,97.41
2023-01-12T18:30:27.331Z,97.91
2023-01-12T18:32:56.602Z,97.62
2023-01-12T18:35:26.412Z,96.84
2023-01-12T18:37:55.725Z,96.82
2023-01-12T18:40:25.315Z,96.77
2023-01-12T18:42:55.730Z,97.23
2023-01-12T18:45:26.152Z,96.83
2023-01-12T18:48:13.658Z,97.37
2023-01-12T18:51:01.466Z,96.90
2023-01-12T18:53:32.553Z,97.35
2023-01-12T18:56:05.939Z,96.97
2023-01-12T18:58:37.200Z,96.37
2023-01-12T19:01:08.534Z,96.84
2023-01-12T19:03:38.135Z,96.59
2023-01-12T19:06:26.153Z,96.69
2023-01-12T19:09:14.364Z,96.51
2023-01-12T19:11:43.722Z,96.55
2023-01-12T19:14:31.205Z,96.32
2023-01-12T19:17:18.332Z,96.76
2023-01-12T19:19:48.197Z,97.01
2023-01-12T19:22:35.699Z,96.69
2023-01-12T19:25:24.101Z,97.39
2023-01-12T19:28:11.177Z,97.10
2023-01-12T19:30:40.790Z,97.61
2023-01-12T19:33:16.265Z,98.17
2023-01-12T19:35:47.103Z,98.63
2023-01-12T19:38:16.820Z,98.93
2023-01-12T19:40:48.364Z,98.85
2023-01-12T19:43:20.934Z,98.91
2023-01-12T19:45:53.838Z,98.33
2023-01-12T19:48:25.223Z,98.25
2023-01-12T19:50:54.943Z,98.15
2023-01-12T19:53:28.554Z,98.09
2023-01-12T19:55:58.783Z,97.93
2023-01-12T19:58:28.656Z,97.88
2023-01-12T20:00:58.158Z,97.54
2023-01-12T20:03:27.576Z,97.64
2023-01-12T20:05:57.221Z,97.49
2023-01-12T20:08:26.966Z,97.37
2023-01-12T20:10:58.707Z,97.04
2023-01-12T20:13:28.671Z,96.42
2023-01-12T20:15:58.158Z,96.79
2023-01-12T20:18:27.678Z,96.48
2023-01-12T20:20:58.870Z,96.47
2023-01-12T20:23:29.111Z,96.81
2023-01-12T20:25:59.559Z,96.44
2023-01-12T20:28:28.950Z,95.58
2023-01-12T20:30:59.469Z,95.96
2023-01-12T20:33:28.822Z,95.93
2023-01-12T20:35:58.458Z,94.38
2023-01-12T20:38:27.868Z,94.22
2023-01-12T20:40:57.193Z,94.56
2023-01-12T20:43:26.791Z,94.13
2023-01-12T20:45:56.279Z,95.24
2023-01-12T20:48:27.746Z,95.52
2023-01-12T20:50:57.661Z,96.69
2023-01-12T20:53:28.902Z,97.03
2023-01-12T20:55:58.507Z,97.34
2023-01-12T20:58:27.834Z,97.15
2023-01-12T21:00:57.429Z,97.32
2023-01-12T21:03:26.894Z,97.13
2023-01-12T21:05:56.232Z,97.01
2023-01-12T21:08:25.559Z,94.90
2023-01-12T21:10:55.546Z,95.43
2023-01-12T21:13:24.762Z,95.43
2023-01-12T21:16:01.765Z,93.74
2023-01-12T21:18:32.037Z,94.10
2023-01-12T21:21:01.793Z,93.31
2023-01-12T21:23:31.220Z,93.23
2023-01-12T21:26:01.012Z,92.86
2023-01-12T21:28:30.803Z,92.49
2023-01-12T21:31:04.205Z,93.12
2023-01-12T21:33:33.704Z,93.12
2023-01-12T21:36:03.067Z,92.96
2023-01-12T21:38:32.460Z,93.07
2023-01-12T21:41:04.083Z,92.65
2023-01-12T21:43:34.941Z,92.84
2023-01-12T21:46:07.119Z,93.00
2023-01-12T21:48:37.277Z,92.55
2023-01-12T21:51:08.930Z,92.65
2023-01-12T21:53:38.543Z,92.49
2023-01-12T21:56:08.160Z,93.33
2023-01-12T21:58:38.195Z,91.97
2023-01-12T22:01:15.393Z,92.18
2023-01-12T22:03:45.332Z,91.54
2023-01-12T22:06:14.847Z,91.19
2023-01-12T22:08:44.360Z,91.48
2023-01-12T22:11:16.711Z,91.17
2023-01-12T22:13:47.126Z,90.77
2023-01-12T22:16:16.809Z,90.83
2023-01-12T22:18:49.555Z,90.16
2023-01-12T22:21:20.786Z,89.95
2023-01-12T22:23:50.583Z,88.76
2023-01-12T22:26:20.195Z,88.73
2023-01-12T22:28:50.761Z,89.03
2023-01-12T22:31:22.554Z,88.72
2023-01-12T22:33:56.404Z,88.64
2023-01-12T22:36:26.266Z,88.76
2023-01-12T22:38:56.213Z,88.80
2023-01-12T22:41:26.159Z,89.47
2023-01-12T22:43:56.444Z,88.48
2023-01-12T22:46:28.117Z,87.32
2023-01-12T22:49:00.393Z,86.57
2023-01-12T22:51:31.407Z,86.77
2023-01-12T22:54:01.788Z,87.01
2023-01-12T22:56:31.026Z,86.71
2023-01-12T22:59:00.539Z,86.05
2023-01-12T23:01:29.707Z,86.26
2023-01-12T23:03:59.587Z,86.60
2023-01-12T23:06:28.773Z,86.59
2023-01-12T23:08:58.144Z,86.16
2023-01-12T23:11:27.782Z,86.79
2023-01-12T23:13:57.346Z,86.78
2023-01-12T23:16:27.174Z,86.12
2023-01-12T23:18:56.863Z,86.59
2023-01-12T23:21:28.757Z,85.88
2023-01-12T23:24:00.021Z,86.26
2023-01-12T23:26:31.840Z,86.43
2023-01-12T23:29:03.237Z,85.80
2023-01-12T23:31:34.064Z,86.12
2023-01-12T23:34:04.084Z,86.28
2023-01-12T23:36:33.256Z,87.04
2023-01-12T23:39:04.596Z,86.47
2023-01-12T23:41:35.812Z,86.91
2023-01-12T23:44:07.691Z,87.32
2023-01-12T23:46:40.247Z,87.79
2023-01-12T23:49:08.773Z,87.11
2023-01-12T23:51:37.859Z,87.98
2023-01-12T23:54:07.567Z,87.83
2023-01-12T23:56:36.828Z,87.99
2023-01-12T23:59:05.998Z,87.68
